sensor_id;sensor_type;location;lat;lon;timestamp;pressure;altitude;pressure_sealevel;temperature;humidity
44027;BME280;29696;55.698;37.460;2022-12-10T00:02:21;99417.53;;;-2.58;80.87
44027;BME280;29696;55.698;37.460;2022-12-10T00:04:47;99410.44;;;-2.53;80.88
44027;BME280;29696;55.698;37.460;2022-12-10T00:07:13;99409.38;;;-2.47;80.96
44027;BME280;29696;55.698;37.460;2022-12-10T00:09:39;99421.25;;;-2.41;81.02
44027;BME280;29696;55.698;37.460;2022-12-10T00:12:05;99418.47;;;-2.37;81.01
44027;BME280;29696;55.698;37.460;2022-12-10T00:14:31;99419.97;;;-2.31;81.00
44027;BME280;29696;55.698;37.460;2022-12-10T00:16:57;99411.22;;;-2.27;81.07
44027;BME280;29696;55.698;37.460;2022-12-10T00:19:23;99402.53;;;-2.26;80.91
44027;BME280;29696;55.698;37.460;2022-12-10T00:21:49;99409.81;;;-2.36;80.78
44027;BME280;29696;55.698;37.460;2022-12-10T00:24:15;99406.84;;;-2.48;80.58
44027;BME280;29696;55.698;37.460;2022-12-10T00:26:41;99403.75;;;-2.58;80.50
44027;BME280;29696;55.698;37.460;2022-12-10T00:29:08;99405.75;;;-2.65;80.41
44027;BME280;29696;55.698;37.460;2022-12-10T00:31:36;99403.25;;;-2.68;80.39
44027;BME280;29696;55.698;37.460;2022-12-10T00:34:03;99404.09;;;-2.67;80.40
44027;BME280;29696;55.698;37.460;2022-12-10T00:36:34;99402.31;;;-2.65;80.36
44027;BME280;29696;55.698;37.460;2022-12-10T00:39:01;99399.59;;;-2.62;80.48
44027;BME280;29696;55.698;37.460;2022-12-10T00:41:28;99408.81;;;-2.55;80.61
44027;BME280;29696;55.698;37.460;2022-12-10T00:43:54;99403.53;;;-2.52;80.69
44027;BME280;29696;55.698;37.460;2022-12-10T00:46:20;99399.25;;;-2.53;80.47
44027;BME280;29696;55.698;37.460;2022-12-10T00:48:46;99397.69;;;-2.57;80.57
44027;BME280;29696;55.698;37.460;2022-12-10T00:51:16;99397.75;;;-2.59;80.31
44027;BME280;29696;55.698;37.460;2022-12-10T00:53:43;99399.59;;;-2.62;80.58
44027;BME280;29696;55.698;37.460;2022-12-10T00:56:10;99381.44;;;-2.61;80.36
44027;BME280;29696;55.698;37.460;2022-12-10T00:58:36;99357.19;;;-2.58;80.39
44027;BME280;29696;55.698;37.460;2022-12-10T01:01:10;99363.28;;;-2.59;80.64
44027;BME280;29696;55.698;37.460;2022-12-10T01:03:37;99365.16;;;-2.63;80.60
44027;BME280;29696;55.698;37.460;2022-12-10T01:06:11;99365.06;;;-2.61;80.63
44027;BME280;29696;55.698;37.460;2022-12-10T01:08:38;99359.78;;;-2.58;80.76
44027;BME280;29696;55.698;37.460;2022-12-10T01:11:04;99354.59;;;-2.58;80.95
44027;BME280;29696;55.698;37.460;2022-12-10T01:13:30;99352.81;;;-2.56;80.74
44027;BME280;29696;55.698;37.460;2022-12-10T01:15:56;99347.56;;;-2.55;80.95
44027;BME280;29696;55.698;37.460;2022-12-10T01:18:25;99348.31;;;-2.51;80.88
44027;BME280;29696;55.698;37.460;2022-12-10T01:20:51;99350.00;;;-2.50;80.98
44027;BME280;29696;55.698;37.460;2022-12-10T01:23:17;99351.78;;;-2.52;80.70
44027;BME280;29696;55.698;37.460;2022-12-10T01:25:43;99362.13;;;-2.52;80.84
44027;BME280;29696;55.698;37.460;2022-12-10T01:28:09;99360.25;;;-2.48;80.94
44027;BME280;29696;55.698;37.460;2022-12-10T01:30:35;99355.88;;;-2.46;80.93
44027;BME280;29696;55.698;37.460;2022-12-10T01:33:01;99345.41;;;-2.43;80.90
44027;BME280;29696;55.698;37.460;2022-12-10T01:35:27;99346.91;;;-2.38;81.27
44027;BME280;29696;55.698;37.460;2022-12-10T01:37:53;99345.06;;;-2.34;81.07
44027;BME280;29696;55.698;37.460;2022-12-10T01:40:19;99345.75;;;-2.31;81.21
44027;BME280;29696;55.698;37.460;2022-12-10T01:42:45;99344.69;;;-2.25;81.12
44027;BME280;29696;55.698;37.460;2022-12-10T01:45:14;99341.94;;;-2.20;81.40
44027;BME280;29696;55.698;37.460;2022-12-10T01:47:40;99353.72;;;-2.13;81.40
44027;BME280;29696;55.698;37.460;2022-12-10T01:50:06;99353.53;;;-2.09;81.23
44027;BME280;29696;55.698;37.460;2022-12-10T01:52:36;99357.56;;;-2.01;81.35
44027;BME280;29696;55.698;37.460;2022-12-10T01:55:06;99360.84;;;-1.98;81.57
44027;BME280;29696;55.698;37.460;2022-12-10T01:57:32;99363.28;;;-1.93;81.45
44027;BME280;29696;55.698;37.460;2022-12-10T02:00:00;99358.88;;;-1.91;81.54
44027;BME280;29696;55.698;37.460;2022-12-10T02:08:18;99355.69;;;-1.98;81.24
44027;BME280;29696;55.698;37.460;2022-12-10T02:13:31;99373.69;;;-1.95;81.21
44027;BME280;29696;55.698;37.460;2022-12-10T02:16:03;99362.44;;;-1.94;81.27
44027;BME280;29696;55.698;37.460;2022-12-10T02:18:32;99360.72;;;-1.95;81.33
44027;BME280;29696;55.698;37.460;2022-12-10T02:21:03;99362.50;;;-1.95;81.26
44027;BME280;29696;55.698;37.460;2022-12-10T02:23:36;99356.47;;;-1.96;81.23
44027;BME280;29696;55.698;37.460;2022-12-10T02:31:56;99344.44;;;-1.97;81.18
44027;BME280;29696;55.698;37.460;2022-12-10T02:34:25;99358.16;;;-1.95;81.46
44027;BME280;29696;55.698;37.460;2022-12-10T02:36:55;99347.78;;;-1.95;81.38
44027;BME280;29696;55.698;37.460;2022-12-10T02:39:27;99333.16;;;-1.96;81.54
44027;BME280;29696;55.698;37.460;2022-12-10T02:41:57;99344.50;;;-1.98;81.46
44027;BME280;29696;55.698;37.460;2022-12-10T02:44:24;99348.94;;;-2.02;81.27
44027;BME280;29696;55.698;37.460;2022-12-10T02:46:53;99335.88;;;-1.99;81.53
44027;BME280;29696;55.698;37.460;2022-12-10T02:49:22;99339.06;;;-1.92;81.48
44027;BME280;29696;55.698;37.460;2022-12-10T02:51:49;99330.31;;;-1.90;81.48
44027;BME280;29696;55.698;37.460;2022-12-10T02:57:01;99325.13;;;-1.90;81.57
44027;BME280;29696;55.698;37.460;2022-12-10T02:59:35;99323.50;;;-1.92;81.53
44027;BME280;29696;55.698;37.460;2022-12-10T03:04:55;99314.66;;;-1.87;81.53
44027;BME280;29696;55.698;37.460;2022-12-10T03:07:25;99315.44;;;-1.85;81.56
44027;BME280;29696;55.698;37.460;2022-12-10T03:09:54;99324.19;;;-1.87;81.54
44027;BME280;29696;55.698;37.460;2022-12-10T03:12:28;99326.94;;;-1.92;81.50
44027;BME280;29696;55.698;37.460;2022-12-10T03:14:58;99335.75;;;-1.96;81.57
44027;BME280;29696;55.698;37.460;2022-12-10T03:17:27;99320.34;;;-1.99;81.54
44027;BME280;29696;55.698;37.460;2022-12-10T03:19:54;99325.66;;;-2.02;81.87
44027;BME280;29696;55.698;37.460;2022-12-10T03:22:21;99332.75;;;-2.07;82.06
44027;BME280;29696;55.698;37.460;2022-12-10T03:24:47;99324.16;;;-2.08;81.99
44027;BME280;29696;55.698;37.460;2022-12-10T03:27:14;99325.06;;;-2.09;82.02
44027;BME280;29696;55.698;37.460;2022-12-10T03:29:45;99332.13;;;-2.12;82.10
44027;BME280;29696;55.698;37.460;2022-12-10T03:32:12;99329.53;;;-2.12;82.08
44027;BME280;29696;55.698;37.460;2022-12-10T03:34:39;99335.53;;;-2.12;82.27
44027;BME280;29696;55.698;37.460;2022-12-10T03:37:06;99329.66;;;-2.15;82.22
44027;BME280;29696;55.698;37.460;2022-12-10T03:39:32;99329.78;;;-2.18;82.38
44027;BME280;29696;55.698;37.460;2022-12-10T03:41:58;99340.34;;;-2.24;82.54
44027;BME280;29696;55.698;37.460;2022-12-10T03:44:31;99333.63;;;-2.28;82.90
44027;BME280;29696;55.698;37.460;2022-12-10T03:46:57;99325.97;;;-2.32;82.95
44027;BME280;29696;55.698;37.460;2022-12-10T03:49:23;99328.44;;;-2.28;83.23
44027;BME280;29696;55.698;37.460;2022-12-10T03:51:50;99329.16;;;-2.25;83.26
44027;BME280;29696;55.698;37.460;2022-12-10T03:54:16;99330.78;;;-2.22;83.45
44027;BME280;29696;55.698;37.460;2022-12-10T03:56:42;99328.97;;;-2.20;83.54
44027;BME280;29696;55.698;37.460;2022-12-10T03:59:08;99332.28;;;-2.17;83.51
44027;BME280;29696;55.698;37.460;2022-12-10T04:01:34;99330.41;;;-2.13;83.71
44027;BME280;29696;55.698;37.460;2022-12-10T04:04:00;99327.00;;;-2.14;83.66
44027;BME280;29696;55.698;37.460;2022-12-10T04:06:26;99332.13;;;-2.12;83.58
44027;BME280;29696;55.698;37.460;2022-12-10T04:08:52;99322.53;;;-2.10;83.54
44027;BME280;29696;55.698;37.460;2022-12-10T04:11:18;99326.69;;;-2.06;83.54
44027;BME280;29696;55.698;37.460;2022-12-10T04:13:44;99325.69;;;-2.03;83.68
44027;BME280;29696;55.698;37.460;2022-12-10T04:16:29;99325.59;;;-2.00;83.68
44027;BME280;29696;55.698;37.460;2022-12-10T04:19:00;99331.50;;;-1.97;83.65
44027;BME280;29696;55.698;37.460;2022-12-10T04:21:27;99342.56;;;-1.93;83.65
44027;BME280;29696;55.698;37.460;2022-12-10T04:24:12;99339.72;;;-1.87;83.44
44027;BME280;29696;55.698;37.460;2022-12-10T04:26:58;99340.28;;;-1.80;83.68
44027;BME280;29696;55.698;37.460;2022-12-10T04:29:26;99346.13;;;-1.75;83.72
44027;BME280;29696;55.698;37.460;2022-12-10T04:31:52;99334.72;;;-1.71;83.39
44027;BME280;29696;55.698;37.460;2022-12-10T04:34:18;99331.25;;;-1.70;83.37
44027;BME280;29696;55.698;37.460;2022-12-10T04:36:45;99334.69;;;-1.70;83.16
44027;BME280;29696;55.698;37.460;2022-12-10T04:39:11;99329.50;;;-1.70;83.16
44027;BME280;29696;55.698;37.460;2022-12-10T04:41:41;99325.16;;;-1.69;83.06
44027;BME280;29696;55.698;37.460;2022-12-10T04:44:07;99329.50;;;-1.70;82.99
44027;BME280;29696;55.698;37.460;2022-12-10T04:46:34;99325.94;;;-1.67;82.89
44027;BME280;29696;55.698;37.460;2022-12-10T04:49:00;99321.53;;;-1.65;82.95
44027;BME280;29696;55.698;37.460;2022-12-10T04:51:26;99322.31;;;-1.63;82.84
44027;BME280;29696;55.698;37.460;2022-12-10T04:53:52;99324.91;;;-1.63;82.73
44027;BME280;29696;55.698;37.460;2022-12-10T04:56:18;99323.94;;;-1.61;82.83
44027;BME280;29696;55.698;37.460;2022-12-10T04:58:44;99320.41;;;-1.59;82.81
44027;BME280;29696;55.698;37.460;2022-12-10T05:01:10;99318.66;;;-1.59;82.83
44027;BME280;29696;55.698;37.460;2022-12-10T05:03:36;99316.84;;;-1.57;82.81
44027;BME280;29696;55.698;37.460;2022-12-10T05:06:03;99310.84;;;-1.57;82.65
44027;BME280;29696;55.698;37.460;2022-12-10T05:08:29;99311.75;;;-1.58;82.68
44027;BME280;29696;55.698;37.460;2022-12-10T05:11:00;99316.22;;;-1.62;82.58
44027;BME280;29696;55.698;37.460;2022-12-10T05:13:26;99312.00;;;-1.65;82.61
44027;BME280;29696;55.698;37.460;2022-12-10T05:15:52;99310.31;;;-1.66;82.56
44027;BME280;29696;55.698;37.460;2022-12-10T05:18:18;99313.88;;;-1.68;82.53
44027;BME280;29696;55.698;37.460;2022-12-10T05:20:44;99323.47;;;-1.70;82.44
44027;BME280;29696;55.698;37.460;2022-12-10T05:23:10;99321.78;;;-1.71;82.65
44027;BME280;29696;55.698;37.460;2022-12-10T05:26:05;99319.97;;;-1.69;82.46
44027;BME280;29696;55.698;37.460;2022-12-10T05:28:41;99333.06;;;-1.72;82.67
44027;BME280;29696;55.698;37.460;2022-12-10T05:33:59;99327.09;;;-1.74;82.48
44027;BME280;29696;55.698;37.460;2022-12-10T05:36:26;99321.03;;;-1.73;82.69
44027;BME280;29696;55.698;37.460;2022-12-10T05:38:53;99321.78;;;-1.71;82.68
44027;BME280;29696;55.698;37.460;2022-12-10T05:41:21;99327.88;;;-1.72;82.34
44027;BME280;29696;55.698;37.460;2022-12-10T05:43:48;99329.63;;;-1.73;82.44
44027;BME280;29696;55.698;37.460;2022-12-10T05:46:21;99328.00;;;-1.75;82.53
44027;BME280;29696;55.698;37.460;2022-12-10T05:48:48;99325.53;;;-1.78;82.61
44027;BME280;29696;55.698;37.460;2022-12-10T05:51:15;99325.41;;;-1.75;82.85
44027;BME280;29696;55.698;37.460;2022-12-10T05:53:42;99320.38;;;-1.78;82.91
44027;BME280;29696;55.698;37.460;2022-12-10T05:56:09;99315.19;;;-1.78;83.10
44027;BME280;29696;55.698;37.460;2022-12-10T05:58:35;99318.69;;;-1.79;83.31
44027;BME280;29696;55.698;37.460;2022-12-10T06:01:06;99312.59;;;-1.78;83.44
44027;BME280;29696;55.698;37.460;2022-12-10T06:03:32;99316.09;;;-1.79;83.20
44027;BME280;29696;55.698;37.460;2022-12-10T06:05:58;99314.41;;;-1.80;83.27
44027;BME280;29696;55.698;37.460;2022-12-10T06:08:24;99316.84;;;-1.77;83.21
44027;BME280;29696;55.698;37.460;2022-12-10T06:10:50;99316.81;;;-1.76;83.19
44027;BME280;29696;55.698;37.460;2022-12-10T06:13:16;99312.47;;;-1.75;83.35
44027;BME280;29696;55.698;37.460;2022-12-10T06:15:42;99318.31;;;-1.70;83.24
44027;BME280;29696;55.698;37.460;2022-12-10T06:18:08;99311.22;;;-1.67;83.18
44027;BME280;29696;55.698;37.460;2022-12-10T06:20:36;99299.03;;;-1.65;83.41
44027;BME280;29696;55.698;37.460;2022-12-10T06:23:03;99303.19;;;-1.61;83.26
44027;BME280;29696;55.698;37.460;2022-12-10T06:25:29;99303.97;;;-1.58;83.22
44027;BME280;29696;55.698;37.460;2022-12-10T06:27:55;99304.69;;;-1.55;83.38
44027;BME280;29696;55.698;37.460;2022-12-10T06:30:21;99297.81;;;-1.56;83.11
44027;BME280;29696;55.698;37.460;2022-12-10T06:32:47;99303.91;;;-1.57;83.19
44027;BME280;29696;55.698;37.460;2022-12-10T06:35:13;99301.25;;;-1.55;83.12
44027;BME280;29696;55.698;37.460;2022-12-10T06:37:39;99305.44;;;-1.53;82.97
44027;BME280;29696;55.698;37.460;2022-12-10T06:40:05;99291.47;;;-1.49;83.14
44027;BME280;29696;55.698;37.460;2022-12-10T06:42:31;99296.38;;;-1.43;83.07
44027;BME280;29696;55.698;37.460;2022-12-10T06:44:57;99297.91;;;-1.39;83.39
44027;BME280;29696;55.698;37.460;2022-12-10T06:47:23;99303.66;;;-1.32;83.18
44027;BME280;29696;55.698;37.460;2022-12-10T06:49:50;99301.72;;;-1.27;83.07
44027;BME280;29696;55.698;37.460;2022-12-10T06:52:16;99296.47;;;-1.25;83.07
44027;BME280;29696;55.698;37.460;2022-12-10T06:54:42;99303.34;;;-1.24;83.00
44027;BME280;29696;55.698;37.460;2022-12-10T06:57:07;99305.00;;;-1.23;82.55
44027;BME280;29696;55.698;37.460;2022-12-10T06:59:34;99298.03;;;-1.21;82.65
44027;BME280;29696;55.698;37.460;2022-12-10T07:02:00;99302.16;;;-1.17;82.56
44027;BME280;29696;55.698;37.460;2022-12-10T07:04:26;99302.78;;;-1.12;82.50
44027;BME280;29696;55.698;37.460;2022-12-10T07:06:52;99298.16;;;-1.05;82.39
44027;BME280;29696;55.698;37.460;2022-12-10T07:09:18;99288.63;;;-1.05;82.33
44027;BME280;29696;55.698;37.460;2022-12-10T07:11:44;99291.22;;;-1.05;82.35
44027;BME280;29696;55.698;37.460;2022-12-10T07:14:16;99295.50;;;-1.04;82.44
44027;BME280;29696;55.698;37.460;2022-12-10T07:16:42;99291.09;;;-1.02;82.33
44027;BME280;29696;55.698;37.460;2022-12-10T07:19:09;99297.03;;;-1.00;82.23
44027;BME280;29696;55.698;37.460;2022-12-10T07:21:37;99297.75;;;-0.96;82.26
44027;BME280;29696;55.698;37.460;2022-12-10T07:24:05;99303.66;;;-0.93;82.03
44027;BME280;29696;55.698;37.460;2022-12-10T07:26:32;99306.13;;;-0.89;81.92
44027;BME280;29696;55.698;37.460;2022-12-10T07:29:00;99319.56;;;-0.81;82.07
44027;BME280;29696;55.698;37.460;2022-12-10T07:31:27;99311.47;;;-0.75;82.11
44027;BME280;29696;55.698;37.460;2022-12-10T07:33:53;99301.81;;;-0.72;82.07
44027;BME280;29696;55.698;37.460;2022-12-10T07:36:20;99304.28;;;-0.68;81.88
44027;BME280;29696;55.698;37.460;2022-12-10T07:38:48;99305.03;;;-0.66;82.00
44027;BME280;29696;55.698;37.460;2022-12-10T07:41:15;99299.00;;;-0.67;81.59
44027;BME280;29696;55.698;37.460;2022-12-10T07:43:42;99298.06;;;-0.66;81.61
44027;BME280;29696;55.698;37.460;2022-12-10T07:46:10;99299.84;;;-0.66;81.54
44027;BME280;29696;55.698;37.460;2022-12-10T07:48:36;99300.63;;;-0.64;81.72
44027;BME280;29696;55.698;37.460;2022-12-10T07:51:03;99289.25;;;-0.62;81.47
44027;BME280;29696;55.698;37.460;2022-12-10T07:53:29;99286.44;;;-0.57;81.69
44027;BME280;29696;55.698;37.460;2022-12-10T07:55:55;99288.72;;;-0.51;81.68
44027;BME280;29696;55.698;37.460;2022-12-10T07:58:21;99285.84;;;-0.45;81.59
44027;BME280;29696;55.698;37.460;2022-12-10T08:00:47;99291.66;;;-0.40;81.55
44027;BME280;29696;55.698;37.460;2022-12-10T08:03:13;99287.00;;;-0.33;81.34
44027;BME280;29696;55.698;37.460;2022-12-10T08:05:39;99288.19;;;-0.21;81.51
44027;BME280;29696;55.698;37.460;2022-12-10T08:08:05;99287.72;;;-0.12;81.64
44027;BME280;29696;55.698;37.460;2022-12-10T08:10:35;99289.19;;;-0.07;81.70
44027;BME280;29696;55.698;37.460;2022-12-10T08:13:01;99284.75;;;-0.05;81.69
44027;BME280;29696;55.698;37.460;2022-12-10T08:15:27;99287.22;;;-0.02;81.42
44027;BME280;29696;55.698;37.460;2022-12-10T08:17:56;99283.84;;;-0.04;81.35
44027;BME280;29696;55.698;37.460;2022-12-10T08:20:22;99290.72;;;-0.03;81.27
44027;BME280;29696;55.698;37.460;2022-12-10T08:22:49;99289.13;;;-0.05;81.04
44027;BME280;29696;55.698;37.460;2022-12-10T08:25:15;99294.38;;;-0.07;81.08
44027;BME280;29696;55.698;37.460;2022-12-10T08:27:41;99293.34;;;-0.03;81.09
44027;BME280;29696;55.698;37.460;2022-12-10T08:30:08;99284.41;;;0.03;81.00
44027;BME280;29696;55.698;37.460;2022-12-10T08:32:34;99278.34;;;0.03;80.79
44027;BME280;29696;55.698;37.460;2022-12-10T08:35:00;99272.97;;;0.06;80.95
44027;BME280;29696;55.698;37.460;2022-12-10T08:37:26;99270.22;;;0.09;80.88
44027;BME280;29696;55.698;37.460;2022-12-10T08:39:52;99268.34;;;0.12;80.71
44027;BME280;29696;55.698;37.460;2022-12-10T08:42:18;99278.44;;;0.18;80.91
44027;BME280;29696;55.698;37.460;2022-12-10T08:44:44;99268.78;;;0.20;80.60
44027;BME280;29696;55.698;37.460;2022-12-10T08:47:10;99277.56;;;0.18;80.51
44027;BME280;29696;55.698;37.460;2022-12-10T08:49:36;99274.53;;;0.10;80.16
44027;BME280;29696;55.698;37.460;2022-12-10T08:52:02;99268.72;;;0.05;79.98
44027;BME280;29696;55.698;37.460;2022-12-10T08:54:28;99273.13;;;0.03;80.18
44027;BME280;29696;55.698;37.460;2022-12-10T08:56:54;99272.31;;;0.02;80.00
44027;BME280;29696;55.698;37.460;2022-12-10T08:59:20;99267.19;;;0.01;80.04
44027;BME280;29696;55.698;37.460;2022-12-10T09:01:46;99273.22;;;0.01;79.94
44027;BME280;29696;55.698;37.460;2022-12-10T09:04:12;99259.72;;;-0.06;79.54
44027;BME280;29696;55.698;37.460;2022-12-10T09:06:41;99267.66;;;-0.09;79.77
44027;BME280;29696;55.698;37.460;2022-12-10T09:09:07;99274.00;;;-0.14;79.50
44027;BME280;29696;55.698;37.460;2022-12-10T09:11:34;99282.69;;;-0.15;79.93
44027;BME280;29696;55.698;37.460;2022-12-10T09:14:00;99277.63;;;-0.18;79.84
44027;BME280;29696;55.698;37.460;2022-12-10T09:16:31;99276.91;;;-0.20;80.01
44027;BME280;29696;55.698;37.460;2022-12-10T09:18:58;99269.16;;;-0.22;80.19
44027;BME280;29696;55.698;37.460;2022-12-10T09:21:24;99270.84;;;-0.21;80.15
44027;BME280;29696;55.698;37.460;2022-12-10T09:23:50;99269.84;;;-0.18;80.33
44027;BME280;29696;55.698;37.460;2022-12-10T09:26:17;99274.00;;;-0.14;80.41
44027;BME280;29696;55.698;37.460;2022-12-10T09:28:44;99269.53;;;-0.12;80.55
44027;BME280;29696;55.698;37.460;2022-12-10T09:31:10;99265.97;;;-0.10;80.48
44027;BME280;29696;55.698;37.460;2022-12-10T09:33:37;99266.78;;;-0.09;80.50
44027;BME280;29696;55.698;37.460;2022-12-10T09:36:03;99271.16;;;-0.10;80.27
44027;BME280;29696;55.698;37.460;2022-12-10T09:38:35;99259.09;;;-0.11;80.23
44027;BME280;29696;55.698;37.460;2022-12-10T09:44:07;99259.09;;;-0.11;80.31
44027;BME280;29696;55.698;37.460;2022-12-10T09:52:14;99264.38;;;-0.30;79.87
44027;BME280;29696;55.698;37.460;2022-12-10T09:54:43;99257.91;;;-0.40;79.83
44027;BME280;29696;55.698;37.460;2022-12-10T09:57:43;99251.25;;;-0.46;80.17
44027;BME280;29696;55.698;37.460;2022-12-10T10:00:04;99247.91;;;-0.48;80.31
44027;BME280;29696;55.698;37.460;2022-12-10T10:02:37;99244.84;;;-0.56;80.88
44027;BME280;29696;55.698;37.460;2022-12-10T10:07:58;99251.16;;;-0.61;81.87
44027;BME280;29696;55.698;37.460;2022-12-10T10:10:35;99253.91;;;-0.64;82.19
44027;BME280;29696;55.698;37.460;2022-12-10T10:15:53;99255.97;;;-0.71;83.15
44027;BME280;29696;55.698;37.460;2022-12-10T10:18:28;99246.47;;;-0.72;83.34
44027;BME280;29696;55.698;37.460;2022-12-10T10:20:59;99254.13;;;-0.69;83.31
44027;BME280;29696;55.698;37.460;2022-12-10T10:23:25;99244.59;;;-0.68;83.54
44027;BME280;29696;55.698;37.460;2022-12-10T10:25:51;99242.91;;;-0.70;83.61
44027;BME280;29696;55.698;37.460;2022-12-10T10:28:19;99239.63;;;-0.73;83.75
44027;BME280;29696;55.698;37.460;2022-12-10T10:30:46;99231.84;;;-0.73;83.82
44027;BME280;29696;55.698;37.460;2022-12-10T10:33:13;99231.84;;;-0.73;84.17
44027;BME280;29696;55.698;37.460;2022-12-10T10:35:57;99233.50;;;-0.72;84.22
44027;BME280;29696;55.698;37.460;2022-12-10T10:38:27;99233.66;;;-0.75;84.33
44027;BME280;29696;55.698;37.460;2022-12-10T10:40:54;99232.06;;;-0.78;84.27
44027;BME280;29696;55.698;37.460;2022-12-10T10:43:31;99222.53;;;-0.77;84.25
44027;BME280;29696;55.698;37.460;2022-12-10T10:46:04;99212.91;;;-0.75;84.42
44027;BME280;29696;55.698;37.460;2022-12-10T10:48:32;99203.28;;;-0.73;84.29
44027;BME280;29696;55.698;37.460;2022-12-10T10:53:59;99203.97;;;-0.70;84.57
44027;BME280;29696;55.698;37.460;2022-12-10T10:56:26;99197.94;;;-0.70;84.46
44027;BME280;29696;55.698;37.460;2022-12-10T11:01:53;99188.72;;;-0.76;84.62
44027;BME280;29696;55.698;37.460;2022-12-10T11:04:30;99182.88;;;-0.81;84.51
44027;BME280;29696;55.698;37.460;2022-12-10T11:06:59;99181.38;;;-0.85;84.68
44027;BME280;29696;55.698;37.460;2022-12-10T11:09:29;99181.38;;;-0.85;84.70
44027;BME280;29696;55.698;37.460;2022-12-10T11:12:00;99180.59;;;-0.87;85.12
44027;BME280;29696;55.698;37.460;2022-12-10T11:14:29;99167.63;;;-0.87;85.16
44027;BME280;29696;55.698;37.460;2022-12-10T11:16:59;99174.50;;;-0.86;85.61
44027;BME280;29696;55.698;37.460;2022-12-10T11:19:26;99171.00;;;-0.85;85.81
44027;BME280;29696;55.698;37.460;2022-12-10T11:21:52;99174.41;;;-0.84;85.83
44027;BME280;29696;55.698;37.460;2022-12-10T11:24:18;99171.00;;;-0.85;86.26
44027;BME280;29696;55.698;37.460;2022-12-10T11:27:03;99164.13;;;-0.86;86.21
44027;BME280;29696;55.698;37.460;2022-12-10T11:32:38;99161.59;;;-0.87;86.27
44027;BME280;29696;55.698;37.460;2022-12-10T11:40:49;99152.00;;;-0.85;86.31
44027;BME280;29696;55.698;37.460;2022-12-10T11:51:55;99146.41;;;-0.95;86.67
44027;BME280;29696;55.698;37.460;2022-12-10T12:18:16;99123.38;;;-0.66;87.49
44027;BME280;29696;55.698;37.460;2022-12-10T12:20:48;99118.88;;;-0.63;87.42
44027;BME280;29696;55.698;37.460;2022-12-10T12:23:24;99127.13;;;-0.55;87.41
44027;BME280;29696;55.698;37.460;2022-12-10T12:26:27;99125.31;;;-0.53;87.12
44027;BME280;29696;55.698;37.460;2022-12-10T12:29:06;99123.50;;;-0.51;87.20
44027;BME280;29696;55.698;37.460;2022-12-10T12:31:34;99127.91;;;-0.53;87.24
44027;BME280;29696;55.698;37.460;2022-12-10T12:36:53;99123.78;;;-0.57;87.36
44027;BME280;29696;55.698;37.460;2022-12-10T12:42:25;99123.56;;;-0.52;87.23
44027;BME280;29696;55.698;37.460;2022-12-10T12:44:56;99119.13;;;-0.50;87.34
44027;BME280;29696;55.698;37.460;2022-12-10T12:47:58;99123.34;;;-0.48;87.35
44027;BME280;29696;55.698;37.460;2022-12-10T12:50:22;99118.03;;;-0.46;87.26
44027;BME280;29696;55.698;37.460;2022-12-10T12:52:57;99120.50;;;-0.43;87.14
44027;BME280;29696;55.698;37.460;2022-12-10T12:55:34;99122.03;;;-0.39;87.11
44027;BME280;29696;55.698;37.460;2022-12-10T13:00:55;99118.41;;;-0.36;86.96
44027;BME280;29696;55.698;37.460;2022-12-10T13:03:36;99110.63;;;-0.36;87.01
44027;BME280;29696;55.698;37.460;2022-12-10T13:17:36;99108.31;;;-0.25;87.19
44027;BME280;29696;55.698;37.460;2022-12-10T13:23:28;99105.97;;;-0.30;87.42
44027;BME280;29696;55.698;37.460;2022-12-10T13:28:40;99114.81;;;-0.34;87.33
44027;BME280;29696;55.698;37.460;2022-12-10T13:39:35;99108.75;;;-0.33;87.59
44027;BME280;29696;55.698;37.460;2022-12-10T13:48:30;99096.00;;;-0.21;87.48
44027;BME280;29696;55.698;37.460;2022-12-10T13:56:40;99094.88;;;-0.16;87.41
44027;BME280;29696;55.698;37.460;2022-12-10T13:59:12;99085.41;;;-0.17;87.31
44027;BME280;29696;55.698;37.460;2022-12-10T14:07:39;99080.53;;;-0.23;87.28
44027;BME280;29696;55.698;37.460;2022-12-10T14:10:31;99073.63;;;-0.24;87.34
44027;BME280;29696;55.698;37.460;2022-12-10T14:12:59;99074.50;;;-0.24;87.45
44027;BME280;29696;55.698;37.460;2022-12-10T14:15:26;99073.56;;;-0.22;87.54
44027;BME280;29696;55.698;37.460;2022-12-10T14:18:02;99076.06;;;-0.21;87.39
44027;BME280;29696;55.698;37.460;2022-12-10T14:20:29;99067.38;;;-0.20;87.37
44027;BME280;29696;55.698;37.460;2022-12-10T14:22:56;99068.22;;;-0.19;87.36
44027;BME280;29696;55.698;37.460;2022-12-10T14:25:42;99066.56;;;-0.20;87.36
44027;BME280;29696;55.698;37.460;2022-12-10T14:28:12;99055.41;;;-0.22;87.43
44027;BME280;29696;55.698;37.460;2022-12-10T14:30:42;99058.94;;;-0.24;87.29
44027;BME280;29696;55.698;37.460;2022-12-10T14:33:08;99042.75;;;-0.29;87.40
44027;BME280;29696;55.698;37.460;2022-12-10T14:35:36;99054.13;;;-0.31;87.53
44027;BME280;29696;55.698;37.460;2022-12-10T14:38:02;99051.69;;;-0.34;87.34
44027;BME280;29696;55.698;37.460;2022-12-10T14:40:35;99041.47;;;-0.37;87.54
44027;BME280;29696;55.698;37.460;2022-12-10T14:43:06;99032.22;;;-0.43;87.73
44027;BME280;29696;55.698;37.460;2022-12-10T14:45:50;99034.00;;;-0.43;87.85
44027;BME280;29696;55.698;37.460;2022-12-10T14:48:17;99030.56;;;-0.44;87.89
44027;BME280;29696;55.698;37.460;2022-12-10T14:50:44;99025.44;;;-0.46;88.10
44027;BME280;29696;55.698;37.460;2022-12-10T14:53:12;99015.06;;;-0.46;88.20
44027;BME280;29696;55.698;37.460;2022-12-10T14:55:39;99015.00;;;-0.44;88.25
44027;BME280;29696;55.698;37.460;2022-12-10T14:58:05;99003.94;;;-0.48;88.46
44027;BME280;29696;55.698;37.460;2022-12-10T15:00:32;99004.00;;;-0.49;88.66
44027;BME280;29696;55.698;37.460;2022-12-10T15:03:00;98991.94;;;-0.50;88.78
44027;BME280;29696;55.698;37.460;2022-12-10T15:05:28;98994.56;;;-0.50;88.88
44027;BME280;29696;55.698;37.460;2022-12-10T15:10:49;98987.66;;;-0.51;89.20
44027;BME280;29696;55.698;37.460;2022-12-10T15:13:50;98973.69;;;-0.49;89.49
44027;BME280;29696;55.698;37.460;2022-12-10T15:16:18;98982.25;;;-0.47;89.64
44027;BME280;29696;55.698;37.460;2022-12-10T15:18:44;98974.47;;;-0.47;89.60